This is the latest recevied weather packets stored in our database for station/object DH5WR-10. If no packets are shown the sender has not sent any weather packets the latest 1 day(s).
| Time | Temp. | Humidity | Pressure | Rain* | Wind** | Luminosity | Snow |
|---|---|---|---|---|---|---|---|
| 1777784850 | 10° C | 64% | 1017.4 hPa | - | - | - | - |
| 1777783950 | 9.44° C | 66% | 1017.5 hPa | - | - | - | - |
| 1777783050 | 8.89° C | 70% | 1017.5 hPa | - | - | - | - |
| 1777782150 | 8.33° C | 71% | 1017.3 hPa | - | - | - | - |
| 1777781250 | 7.78° C | 73% | 1017.3 hPa | - | - | - | - |
| 1777780349 | 8.89° C | 68% | 1017.3 hPa | - | - | - | - |
| 1777779449 | 8.89° C | 69% | 1017.3 hPa | - | - | - | - |
| 1777778549 | 8.33° C | 72% | 1017.3 hPa | - | - | - | - |
| 1777777649 | 7.78° C | 71% | 1017.2 hPa | - | - | - | - |
| 1777776749 | 8.89° C | 69% | 1017.4 hPa | - | - | - | - |
| 1777775849 | 8.89° C | 66% | 1017.3 hPa | - | - | - | - |
| 1777774949 | 9.44° C | 65% | 1017.5 hPa | - | - | - | - |
| 1777774048 | 10° C | 64% | 1017.5 hPa | - | - | - | - |
| 1777773148 | 10° C | 62% | 1017.5 hPa | - | - | - | - |
| 1777772248 | 10° C | 61% | 1017.6 hPa | - | - | - | - |
| 1777771348 | 10° C | 62% | 1017.6 hPa | - | - | - | - |
| 1777770448 | 10.56° C | 60% | 1017.7 hPa | - | - | - | - |
| 1777769548 | 11.11° C | 58% | 1017.7 hPa | - | - | - | - |
| 1777768648 | 11.67° C | 56% | 1017.7 hPa | - | - | - | - |
| 1777767747 | 11.67° C | 57% | 1017.9 hPa | - | - | - | - |
| 1777766847 | 11.67° C | 57% | 1017.9 hPa | - | - | - | - |
| 1777765947 | 11.67° C | 56% | 1018 hPa | - | - | - | - |
| 1777765047 | 11.67° C | 57% | 1018.1 hPa | - | - | - | - |
| 1777764147 | 12.22° C | 54% | 1018.1 hPa | - | - | - | - |
| 1777763247 | 12.78° C | 52% | 1018.2 hPa | - | - | - | - |
* Rain since midnight (hover to see other rain measurements)
** Current wind speed in m/s (hover to see current wind gust speed)